sensor_id;sensor_type;location;lat;lon;timestamp;P1;durP1;ratioP1;P2;durP2;ratioP2
62848;SDS011;48941;49.516;8.286;2024-01-15T00:00:05;29.05;;;10.85;;
62848;SDS011;48941;49.516;8.286;2024-01-15T00:02:34;24.30;;;10.60;;
62848;SDS011;48941;49.516;8.286;2024-01-15T00:05:03;27.55;;;10.40;;
62848;SDS011;48941;49.516;8.286;2024-01-15T00:07:31;29.60;;;10.13;;
62848;SDS011;48941;49.516;8.286;2024-01-15T00:09:59;30.35;;;10.60;;
62848;SDS011;48941;49.516;8.286;2024-01-15T00:12:26;28.15;;;10.52;;
62848;SDS011;48941;49.516;8.286;2024-01-15T00:14:55;31.48;;;11.55;;
62848;SDS011;48941;49.516;8.286;2024-01-15T00:17:24;26.75;;;10.65;;
62848;SDS011;48941;49.516;8.286;2024-01-15T00:19:52;30.67;;;10.63;;
62848;SDS011;48941;49.516;8.286;2024-01-15T00:22:20;31.85;;;11.55;;
62848;SDS011;48941;49.516;8.286;2024-01-15T00:24:48;26.70;;;9.95;;
62848;SDS011;48941;49.516;8.286;2024-01-15T00:27:16;34.60;;;11.63;;
62848;SDS011;48941;49.516;8.286;2024-01-15T00:29:44;29.05;;;11.02;;
62848;SDS011;48941;49.516;8.286;2024-01-15T00:32:12;25.73;;;10.45;;
62848;SDS011;48941;49.516;8.286;2024-01-15T00:34:41;27.90;;;10.82;;
62848;SDS011;48941;49.516;8.286;2024-01-15T00:37:09;32.17;;;11.50;;
62848;SDS011;48941;49.516;8.286;2024-01-15T00:39:37;29.45;;;10.85;;
62848;SDS011;48941;49.516;8.286;2024-01-15T00:42:05;33.17;;;11.20;;
62848;SDS011;48941;49.516;8.286;2024-01-15T00:44:33;32.20;;;11.63;;
62848;SDS011;48941;49.516;8.286;2024-01-15T00:47:01;26.50;;;9.43;;
62848;SDS011;48941;49.516;8.286;2024-01-15T00:49:29;27.35;;;10.55;;
62848;SDS011;48941;49.516;8.286;2024-01-15T00:51:58;35.78;;;11.60;;
62848;SDS011;48941;49.516;8.286;2024-01-15T00:54:26;35.38;;;11.88;;
62848;SDS011;48941;49.516;8.286;2024-01-15T00:56:54;40.97;;;12.13;;
62848;SDS011;48941;49.516;8.286;2024-01-15T00:59:22;29.90;;;10.82;;
62848;SDS011;48941;49.516;8.286;2024-01-15T01:01:50;29.48;;;10.48;;
62848;SDS011;48941;49.516;8.286;2024-01-15T01:04:17;26.90;;;10.35;;
62848;SDS011;48941;49.516;8.286;2024-01-15T01:06:45;30.08;;;10.80;;
62848;SDS011;48941;49.516;8.286;2024-01-15T01:09:15;28.17;;;10.02;;
62848;SDS011;48941;49.516;8.286;2024-01-15T01:11:42;27.52;;;10.70;;
62848;SDS011;48941;49.516;8.286;2024-01-15T01:14:10;24.90;;;9.50;;
62848;SDS011;48941;49.516;8.286;2024-01-15T01:16:38;26.63;;;10.50;;
62848;SDS011;48941;49.516;8.286;2024-01-15T01:19:06;29.55;;;10.85;;
62848;SDS011;48941;49.516;8.286;2024-01-15T01:21:34;27.52;;;10.38;;
62848;SDS011;48941;49.516;8.286;2024-01-15T01:24:02;23.42;;;10.48;;
62848;SDS011;48941;49.516;8.286;2024-01-15T01:26:32;27.08;;;9.95;;
62848;SDS011;48941;49.516;8.286;2024-01-15T01:29:00;27.77;;;10.50;;
62848;SDS011;48941;49.516;8.286;2024-01-15T01:31:27;26.67;;;10.10;;
62848;SDS011;48941;49.516;8.286;2024-01-15T01:33:55;24.20;;;10.10;;
62848;SDS011;48941;49.516;8.286;2024-01-15T01:36:23;24.85;;;10.48;;
62848;SDS011;48941;49.516;8.286;2024-01-15T01:38:51;25.30;;;10.30;;
62848;SDS011;48941;49.516;8.286;2024-01-15T01:41:19;28.02;;;10.63;;
62848;SDS011;48941;49.516;8.286;2024-01-15T01:43:48;33.15;;;11.45;;
62848;SDS011;48941;49.516;8.286;2024-01-15T01:46:16;31.85;;;11.07;;
62848;SDS011;48941;49.516;8.286;2024-01-15T01:48:44;32.65;;;10.75;;
62848;SDS011;48941;49.516;8.286;2024-01-15T01:51:13;25.75;;;10.15;;
62848;SDS011;48941;49.516;8.286;2024-01-15T01:53:43;27.52;;;9.63;;
62848;SDS011;48941;49.516;8.286;2024-01-15T01:56:12;22.42;;;9.15;;
62848;SDS011;48941;49.516;8.286;2024-01-15T01:58:41;24.80;;;9.43;;
62848;SDS011;48941;49.516;8.286;2024-01-15T02:01:11;34.45;;;10.57;;
62848;SDS011;48941;49.516;8.286;2024-01-15T02:03:40;23.40;;;9.02;;
62848;SDS011;48941;49.516;8.286;2024-01-15T02:06:08;28.40;;;10.73;;
62848;SDS011;48941;49.516;8.286;2024-01-15T02:08:36;30.33;;;10.02;;
62848;SDS011;48941;49.516;8.286;2024-01-15T02:11:04;26.42;;;9.32;;
62848;SDS011;48941;49.516;8.286;2024-01-15T02:13:33;24.38;;;10.38;;
62848;SDS011;48941;49.516;8.286;2024-01-15T02:16:01;26.63;;;9.45;;
62848;SDS011;48941;49.516;8.286;2024-01-15T02:18:38;24.50;;;9.13;;
62848;SDS011;48941;49.516;8.286;2024-01-15T02:21:07;28.23;;;10.05;;
62848;SDS011;48941;49.516;8.286;2024-01-15T02:23:37;28.08;;;9.35;;
62848;SDS011;48941;49.516;8.286;2024-01-15T02:26:05;25.17;;;9.50;;
62848;SDS011;48941;49.516;8.286;2024-01-15T02:28:33;22.20;;;8.45;;
62848;SDS011;48941;49.516;8.286;2024-01-15T02:31:01;23.48;;;8.63;;
62848;SDS011;48941;49.516;8.286;2024-01-15T02:33:29;27.35;;;9.65;;
62848;SDS011;48941;49.516;8.286;2024-01-15T02:35:57;23.33;;;8.60;;
62848;SDS011;48941;49.516;8.286;2024-01-15T02:38:25;41.70;;;11.98;;
62848;SDS011;48941;49.516;8.286;2024-01-15T02:40:54;21.65;;;8.38;;
62848;SDS011;48941;49.516;8.286;2024-01-15T02:43:22;24.02;;;8.63;;
62848;SDS011;48941;49.516;8.286;2024-01-15T02:45:50;26.83;;;9.18;;
62848;SDS011;48941;49.516;8.286;2024-01-15T02:48:18;21.20;;;8.23;;
62848;SDS011;48941;49.516;8.286;2024-01-15T02:50:46;25.13;;;8.90;;
62848;SDS011;48941;49.516;8.286;2024-01-15T02:53:14;27.95;;;9.63;;
62848;SDS011;48941;49.516;8.286;2024-01-15T02:55:42;23.35;;;8.95;;
62848;SDS011;48941;49.516;8.286;2024-01-15T02:58:11;24.45;;;8.73;;
62848;SDS011;48941;49.516;8.286;2024-01-15T03:00:39;24.80;;;9.20;;
62848;SDS011;48941;49.516;8.286;2024-01-15T03:03:07;26.27;;;9.07;;
62848;SDS011;48941;49.516;8.286;2024-01-15T03:05:35;26.17;;;9.73;;
62848;SDS011;48941;49.516;8.286;2024-01-15T03:08:04;28.45;;;10.55;;
62848;SDS011;48941;49.516;8.286;2024-01-15T03:10:31;26.77;;;10.05;;
62848;SDS011;48941;49.516;8.286;2024-01-15T03:12:59;30.80;;;10.55;;
62848;SDS011;48941;49.516;8.286;2024-01-15T03:15:28;25.30;;;9.80;;
62848;SDS011;48941;49.516;8.286;2024-01-15T03:17:56;26.27;;;9.18;;
62848;SDS011;48941;49.516;8.286;2024-01-15T03:20:24;21.55;;;8.65;;
62848;SDS011;48941;49.516;8.286;2024-01-15T03:22:52;24.10;;;8.75;;
62848;SDS011;48941;49.516;8.286;2024-01-15T03:25:20;22.08;;;7.78;;
62848;SDS011;48941;49.516;8.286;2024-01-15T03:27:48;22.13;;;7.97;;
62848;SDS011;48941;49.516;8.286;2024-01-15T03:30:15;21.83;;;8.20;;
62848;SDS011;48941;49.516;8.286;2024-01-15T03:32:45;20.20;;;7.47;;
62848;SDS011;48941;49.516;8.286;2024-01-15T03:35:13;21.63;;;8.75;;
62848;SDS011;48941;49.516;8.286;2024-01-15T03:37:41;22.08;;;8.18;;
62848;SDS011;48941;49.516;8.286;2024-01-15T03:40:09;21.65;;;8.32;;
62848;SDS011;48941;49.516;8.286;2024-01-15T03:42:38;20.25;;;8.32;;
62848;SDS011;48941;49.516;8.286;2024-01-15T03:45:06;24.73;;;8.98;;
62848;SDS011;48941;49.516;8.286;2024-01-15T03:47:34;22.90;;;8.10;;
62848;SDS011;48941;49.516;8.286;2024-01-15T03:50:04;23.20;;;8.00;;
62848;SDS011;48941;49.516;8.286;2024-01-15T03:52:32;22.75;;;8.07;;
62848;SDS011;48941;49.516;8.286;2024-01-15T03:55:00;22.67;;;8.38;;
62848;SDS011;48941;49.516;8.286;2024-01-15T03:57:28;22.38;;;8.52;;
62848;SDS011;48941;49.516;8.286;2024-01-15T03:59:56;20.50;;;8.05;;
62848;SDS011;48941;49.516;8.286;2024-01-15T04:02:24;21.48;;;8.23;;
62848;SDS011;48941;49.516;8.286;2024-01-15T04:04:52;19.13;;;7.82;;
62848;SDS011;48941;49.516;8.286;2024-01-15T04:07:21;21.45;;;8.15;;
62848;SDS011;48941;49.516;8.286;2024-01-15T04:09:49;23.73;;;8.48;;
62848;SDS011;48941;49.516;8.286;2024-01-15T04:12:17;20.52;;;7.95;;
62848;SDS011;48941;49.516;8.286;2024-01-15T04:14:44;21.20;;;8.68;;
62848;SDS011;48941;49.516;8.286;2024-01-15T04:17:12;22.05;;;8.30;;
62848;SDS011;48941;49.516;8.286;2024-01-15T04:19:40;22.63;;;8.82;;
62848;SDS011;48941;49.516;8.286;2024-01-15T04:22:11;21.33;;;8.95;;
62848;SDS011;48941;49.516;8.286;2024-01-15T04:24:40;21.02;;;8.07;;
62848;SDS011;48941;49.516;8.286;2024-01-15T04:27:08;23.75;;;9.40;;
62848;SDS011;48941;49.516;8.286;2024-01-15T04:29:37;24.08;;;8.50;;
62848;SDS011;48941;49.516;8.286;2024-01-15T04:32:07;22.83;;;9.25;;
62848;SDS011;48941;49.516;8.286;2024-01-15T04:34:35;23.02;;;8.93;;
62848;SDS011;48941;49.516;8.286;2024-01-15T04:37:03;23.20;;;9.35;;
62848;SDS011;48941;49.516;8.286;2024-01-15T04:39:31;27.05;;;9.43;;
62848;SDS011;48941;49.516;8.286;2024-01-15T04:42:00;22.98;;;8.38;;
62848;SDS011;48941;49.516;8.286;2024-01-15T04:44:28;22.17;;;8.80;;
62848;SDS011;48941;49.516;8.286;2024-01-15T04:46:56;24.33;;;8.40;;
62848;SDS011;48941;49.516;8.286;2024-01-15T04:49:24;25.23;;;8.82;;
62848;SDS011;48941;49.516;8.286;2024-01-15T04:51:53;22.98;;;8.70;;
62848;SDS011;48941;49.516;8.286;2024-01-15T04:54:21;24.48;;;9.18;;
62848;SDS011;48941;49.516;8.286;2024-01-15T04:56:49;19.48;;;7.60;;
62848;SDS011;48941;49.516;8.286;2024-01-15T04:59:18;21.90;;;8.95;;
62848;SDS011;48941;49.516;8.286;2024-01-15T05:01:46;21.30;;;8.18;;
62848;SDS011;48941;49.516;8.286;2024-01-15T05:04:15;21.48;;;7.97;;
62848;SDS011;48941;49.516;8.286;2024-01-15T05:06:43;23.92;;;9.50;;
62848;SDS011;48941;49.516;8.286;2024-01-15T05:09:11;24.83;;;8.80;;
62848;SDS011;48941;49.516;8.286;2024-01-15T05:11:39;19.67;;;8.20;;
62848;SDS011;48941;49.516;8.286;2024-01-15T05:14:07;20.23;;;8.05;;
62848;SDS011;48941;49.516;8.286;2024-01-15T05:16:39;21.27;;;7.55;;
62848;SDS011;48941;49.516;8.286;2024-01-15T05:19:07;19.08;;;7.90;;
62848;SDS011;48941;49.516;8.286;2024-01-15T05:21:35;16.67;;;7.68;;
62848;SDS011;48941;49.516;8.286;2024-01-15T05:24:03;17.77;;;8.25;;
62848;SDS011;48941;49.516;8.286;2024-01-15T05:26:31;17.88;;;7.72;;
62848;SDS011;48941;49.516;8.286;2024-01-15T05:28:59;16.73;;;7.13;;
62848;SDS011;48941;49.516;8.286;2024-01-15T05:31:27;16.15;;;6.82;;
62848;SDS011;48941;49.516;8.286;2024-01-15T05:33:56;18.42;;;7.55;;
62848;SDS011;48941;49.516;8.286;2024-01-15T05:36:24;20.75;;;7.82;;
62848;SDS011;48941;49.516;8.286;2024-01-15T05:38:52;17.05;;;7.25;;
62848;SDS011;48941;49.516;8.286;2024-01-15T05:41:20;20.23;;;7.60;;
62848;SDS011;48941;49.516;8.286;2024-01-15T05:43:48;16.98;;;7.28;;
62848;SDS011;48941;49.516;8.286;2024-01-15T05:46:15;18.75;;;7.47;;
62848;SDS011;48941;49.516;8.286;2024-01-15T05:48:43;18.02;;;7.22;;
62848;SDS011;48941;49.516;8.286;2024-01-15T05:51:13;19.50;;;7.65;;
62848;SDS011;48941;49.516;8.286;2024-01-15T05:53:41;21.30;;;7.53;;
62848;SDS011;48941;49.516;8.286;2024-01-15T05:56:10;21.48;;;7.32;;
62848;SDS011;48941;49.516;8.286;2024-01-15T05:58:38;18.25;;;8.02;;
62848;SDS011;48941;49.516;8.286;2024-01-15T06:01:06;20.80;;;8.35;;
62848;SDS011;48941;49.516;8.286;2024-01-15T06:03:34;18.45;;;7.93;;
62848;SDS011;48941;49.516;8.286;2024-01-15T06:06:02;26.35;;;9.38;;
62848;SDS011;48941;49.516;8.286;2024-01-15T06:08:31;21.13;;;8.73;;
62848;SDS011;48941;49.516;8.286;2024-01-15T06:10:59;23.05;;;8.88;;
62848;SDS011;48941;49.516;8.286;2024-01-15T06:13:27;25.75;;;8.93;;
62848;SDS011;48941;49.516;8.286;2024-01-15T06:15:55;23.70;;;9.07;;
62848;SDS011;48941;49.516;8.286;2024-01-15T06:18:23;24.00;;;9.32;;
62848;SDS011;48941;49.516;8.286;2024-01-15T06:20:51;24.88;;;9.35;;
62848;SDS011;48941;49.516;8.286;2024-01-15T06:23:19;23.15;;;9.00;;
62848;SDS011;48941;49.516;8.286;2024-01-15T06:25:48;19.70;;;8.95;;
62848;SDS011;48941;49.516;8.286;2024-01-15T06:28:16;23.77;;;9.10;;
62848;SDS011;48941;49.516;8.286;2024-01-15T06:30:44;24.30;;;9.75;;
62848;SDS011;48941;49.516;8.286;2024-01-15T06:33:12;25.23;;;9.32;;
62848;SDS011;48941;49.516;8.286;2024-01-15T06:35:40;25.05;;;9.90;;
62848;SDS011;48941;49.516;8.286;2024-01-15T06:38:08;24.58;;;9.48;;
62848;SDS011;48941;49.516;8.286;2024-01-15T06:40:36;21.80;;;8.68;;
62848;SDS011;48941;49.516;8.286;2024-01-15T06:43:07;23.10;;;9.15;;
62848;SDS011;48941;49.516;8.286;2024-01-15T06:45:35;22.02;;;8.75;;
62848;SDS011;48941;49.516;8.286;2024-01-15T06:48:03;27.33;;;10.10;;
62848;SDS011;48941;49.516;8.286;2024-01-15T06:50:32;23.55;;;10.30;;
62848;SDS011;48941;49.516;8.286;2024-01-15T06:52:59;24.02;;;9.85;;
62848;SDS011;48941;49.516;8.286;2024-01-15T06:55:27;28.20;;;10.18;;
62848;SDS011;48941;49.516;8.286;2024-01-15T06:57:55;26.10;;;9.40;;
62848;SDS011;48941;49.516;8.286;2024-01-15T07:00:25;26.40;;;10.18;;
62848;SDS011;48941;49.516;8.286;2024-01-15T07:02:53;24.90;;;10.30;;
62848;SDS011;48941;49.516;8.286;2024-01-15T07:05:21;23.08;;;9.48;;
62848;SDS011;48941;49.516;8.286;2024-01-15T07:07:49;21.77;;;9.35;;
62848;SDS011;48941;49.516;8.286;2024-01-15T07:10:17;17.70;;;8.07;;
62848;SDS011;48941;49.516;8.286;2024-01-15T07:12:45;22.50;;;9.57;;
62848;SDS011;48941;49.516;8.286;2024-01-15T07:15:14;21.65;;;9.52;;
62848;SDS011;48941;49.516;8.286;2024-01-15T07:17:44;22.02;;;8.63;;
62848;SDS011;48941;49.516;8.286;2024-01-15T07:20:11;21.48;;;9.07;;
62848;SDS011;48941;49.516;8.286;2024-01-15T07:22:39;20.00;;;8.27;;
62848;SDS011;48941;49.516;8.286;2024-01-15T07:25:07;22.65;;;8.57;;
62848;SDS011;48941;49.516;8.286;2024-01-15T07:27:35;20.95;;;8.75;;
62848;SDS011;48941;49.516;8.286;2024-01-15T07:30:03;21.73;;;8.68;;
62848;SDS011;48941;49.516;8.286;2024-01-15T07:32:33;21.35;;;8.70;;
62848;SDS011;48941;49.516;8.286;2024-01-15T07:35:02;23.90;;;8.43;;
62848;SDS011;48941;49.516;8.286;2024-01-15T07:37:30;20.55;;;9.48;;
62848;SDS011;48941;49.516;8.286;2024-01-15T07:39:59;21.73;;;9.20;;
62848;SDS011;48941;49.516;8.286;2024-01-15T07:42:27;18.27;;;7.90;;
62848;SDS011;48941;49.516;8.286;2024-01-15T07:44:55;21.23;;;9.23;;
62848;SDS011;48941;49.516;8.286;2024-01-15T07:47:23;18.88;;;8.27;;
62848;SDS011;48941;49.516;8.286;2024-01-15T07:49:51;18.65;;;8.68;;
62848;SDS011;48941;49.516;8.286;2024-01-15T07:52:22;22.58;;;9.15;;
62848;SDS011;48941;49.516;8.286;2024-01-15T07:54:50;21.58;;;8.80;;
62848;SDS011;48941;49.516;8.286;2024-01-15T07:57:19;22.20;;;8.55;;
62848;SDS011;48941;49.516;8.286;2024-01-15T07:59:46;20.65;;;9.07;;
62848;SDS011;48941;49.516;8.286;2024-01-15T08:02:15;23.40;;;8.85;;
62848;SDS011;48941;49.516;8.286;2024-01-15T08:04:42;18.58;;;9.10;;
62848;SDS011;48941;49.516;8.286;2024-01-15T08:07:10;19.77;;;9.20;;
62848;SDS011;48941;49.516;8.286;2024-01-15T08:09:41;18.02;;;8.70;;
62848;SDS011;48941;49.516;8.286;2024-01-15T08:12:10;20.13;;;8.82;;
62848;SDS011;48941;49.516;8.286;2024-01-15T08:14:39;18.77;;;9.02;;
62848;SDS011;48941;49.516;8.286;2024-01-15T08:17:07;16.60;;;7.88;;
62848;SDS011;48941;49.516;8.286;2024-01-15T08:19:35;17.42;;;8.65;;
62848;SDS011;48941;49.516;8.286;2024-01-15T08:22:03;20.98;;;8.88;;
62848;SDS011;48941;49.516;8.286;2024-01-15T08:24:31;17.58;;;8.57;;
62848;SDS011;48941;49.516;8.286;2024-01-15T08:27:00;17.48;;;8.13;;
62848;SDS011;48941;49.516;8.286;2024-01-15T08:29:28;17.67;;;8.95;;
62848;SDS011;48941;49.516;8.286;2024-01-15T08:31:59;18.65;;;9.15;;
62848;SDS011;48941;49.516;8.286;2024-01-15T08:34:27;20.23;;;8.82;;
62848;SDS011;48941;49.516;8.286;2024-01-15T08:36:57;19.75;;;9.35;;
62848;SDS011;48941;49.516;8.286;2024-01-15T08:39:25;18.95;;;9.60;;
62848;SDS011;48941;49.516;8.286;2024-01-15T08:41:53;20.55;;;9.90;;
62848;SDS011;48941;49.516;8.286;2024-01-15T08:44:22;21.65;;;9.90;;
62848;SDS011;48941;49.516;8.286;2024-01-15T08:46:50;18.98;;;9.05;;
62848;SDS011;48941;49.516;8.286;2024-01-15T08:49:18;17.02;;;8.40;;
62848;SDS011;48941;49.516;8.286;2024-01-15T08:51:47;17.05;;;8.18;;
62848;SDS011;48941;49.516;8.286;2024-01-15T08:54:15;16.10;;;7.93;;
62848;SDS011;48941;49.516;8.286;2024-01-15T08:56:44;18.15;;;8.57;;
62848;SDS011;48941;49.516;8.286;2024-01-15T08:59:12;16.73;;;7.80;;
62848;SDS011;48941;49.516;8.286;2024-01-15T09:01:41;17.70;;;8.20;;
62848;SDS011;48941;49.516;8.286;2024-01-15T09:04:09;17.38;;;8.63;;
62848;SDS011;48941;49.516;8.286;2024-01-15T09:06:37;17.25;;;8.50;;
62848;SDS011;48941;49.516;8.286;2024-01-15T09:09:05;17.52;;;8.80;;
62848;SDS011;48941;49.516;8.286;2024-01-15T09:11:33;17.25;;;8.30;;
62848;SDS011;48941;49.516;8.286;2024-01-15T09:14:01;16.73;;;8.38;;
62848;SDS011;48941;49.516;8.286;2024-01-15T09:16:29;16.23;;;8.60;;
62848;SDS011;48941;49.516;8.286;2024-01-15T09:18:58;16.63;;;8.32;;
62848;SDS011;48941;49.516;8.286;2024-01-15T09:21:27;29.17;;;8.30;;
62848;SDS011;48941;49.516;8.286;2024-01-15T09:23:55;15.00;;;7.53;;
62848;SDS011;48941;49.516;8.286;2024-01-15T09:26:23;19.98;;;7.75;;
62848;SDS011;48941;49.516;8.286;2024-01-15T09:28:51;15.85;;;8.07;;
62848;SDS011;48941;49.516;8.286;2024-01-15T09:31:19;17.73;;;8.65;;
62848;SDS011;48941;49.516;8.286;2024-01-15T09:33:48;16.15;;;8.18;;
62848;SDS011;48941;49.516;8.286;2024-01-15T09:36:20;18.25;;;9.05;;
62848;SDS011;48941;49.516;8.286;2024-01-15T09:38:53;15.93;;;8.70;;
62848;SDS011;48941;49.516;8.286;2024-01-15T09:41:21;19.42;;;9.10;;
62848;SDS011;48941;49.516;8.286;2024-01-15T09:43:50;17.52;;;8.07;;
62848;SDS011;48941;49.516;8.286;2024-01-15T09:46:20;17.60;;;8.55;;
62848;SDS011;48941;49.516;8.286;2024-01-15T09:48:48;18.30;;;8.82;;
62848;SDS011;48941;49.516;8.286;2024-01-15T09:51:16;15.70;;;8.13;;
62848;SDS011;48941;49.516;8.286;2024-01-15T09:53:46;16.80;;;8.38;;
62848;SDS011;48941;49.516;8.286;2024-01-15T09:56:15;16.33;;;7.78;;
62848;SDS011;48941;49.516;8.286;2024-01-15T09:58:43;17.58;;;8.05;;
62848;SDS011;48941;49.516;8.286;2024-01-15T10:01:12;17.15;;;7.53;;
62848;SDS011;48941;49.516;8.286;2024-01-15T10:03:42;16.55;;;7.85;;
62848;SDS011;48941;49.516;8.286;2024-01-15T10:06:10;13.93;;;6.63;;
62848;SDS011;48941;49.516;8.286;2024-01-15T10:08:47;12.57;;;7.03;;
62848;SDS011;48941;49.516;8.286;2024-01-15T10:11:17;13.38;;;6.88;;
62848;SDS011;48941;49.516;8.286;2024-01-15T10:13:45;15.48;;;7.55;;
62848;SDS011;48941;49.516;8.286;2024-01-15T10:16:19;16.48;;;8.07;;
62848;SDS011;48941;49.516;8.286;2024-01-15T10:18:48;16.23;;;8.05;;
62848;SDS011;48941;49.516;8.286;2024-01-15T10:21:17;17.02;;;8.18;;
62848;SDS011;48941;49.516;8.286;2024-01-15T10:23:46;17.60;;;7.60;;
62848;SDS011;48941;49.516;8.286;2024-01-15T10:26:24;16.13;;;7.40;;
62848;SDS011;48941;49.516;8.286;2024-01-15T10:28:54;13.35;;;6.97;;
62848;SDS011;48941;49.516;8.286;2024-01-15T10:31:22;16.70;;;7.32;;
62848;SDS011;48941;49.516;8.286;2024-01-15T10:33:54;12.93;;;6.78;;
62848;SDS011;48941;49.516;8.286;2024-01-15T10:36:38;16.20;;;7.47;;
62848;SDS011;48941;49.516;8.286;2024-01-15T10:39:08;12.50;;;6.40;;
62848;SDS011;48941;49.516;8.286;2024-01-15T10:41:38;16.33;;;7.00;;
62848;SDS011;48941;49.516;8.286;2024-01-15T10:44:06;17.58;;;7.28;;
62848;SDS011;48941;49.516;8.286;2024-01-15T10:46:34;12.38;;;6.40;;
62848;SDS011;48941;49.516;8.286;2024-01-15T10:49:03;15.13;;;7.40;;
62848;SDS011;48941;49.516;8.286;2024-01-15T10:51:32;13.40;;;6.63;;
62848;SDS011;48941;49.516;8.286;2024-01-15T10:54:00;13.70;;;7.20;;
62848;SDS011;48941;49.516;8.286;2024-01-15T10:56:31;13.68;;;7.40;;
62848;SDS011;48941;49.516;8.286;2024-01-15T10:58:59;13.48;;;7.10;;
62848;SDS011;48941;49.516;8.286;2024-01-15T11:01:28;12.90;;;6.93;;
62848;SDS011;48941;49.516;8.286;2024-01-15T11:03:56;12.48;;;6.43;;
62848;SDS011;48941;49.516;8.286;2024-01-15T11:06:25;11.68;;;6.18;;
62848;SDS011;48941;49.516;8.286;2024-01-15T11:08:55;14.15;;;7.07;;
62848;SDS011;48941;49.516;8.286;2024-01-15T11:11:25;13.45;;;6.90;;
62848;SDS011;48941;49.516;8.286;2024-01-15T11:13:54;14.02;;;6.68;;
62848;SDS011;48941;49.516;8.286;2024-01-15T11:16:23;16.67;;;7.55;;
62848;SDS011;48941;49.516;8.286;2024-01-15T11:19:02;13.43;;;7.05;;
62848;SDS011;48941;49.516;8.286;2024-01-15T11:21:34;13.65;;;6.93;;
62848;SDS011;48941;49.516;8.286;2024-01-15T11:24:09;13.20;;;6.35;;
62848;SDS011;48941;49.516;8.286;2024-01-15T11:26:43;15.10;;;7.47;;
62848;SDS011;48941;49.516;8.286;2024-01-15T11:32:04;19.13;;;6.28;;
62848;SDS011;48941;49.516;8.286;2024-01-15T11:37:26;15.93;;;7.05;;
62848;SDS011;48941;49.516;8.286;2024-01-15T11:39:56;13.43;;;6.63;;
62848;SDS011;48941;49.516;8.286;2024-01-15T11:42:30;13.98;;;7.22;;
62848;SDS011;48941;49.516;8.286;2024-01-15T11:44:59;12.27;;;6.53;;
62848;SDS011;48941;49.516;8.286;2024-01-15T11:47:41;15.95;;;7.32;;
62848;SDS011;48941;49.516;8.286;2024-01-15T11:53:02;13.25;;;6.18;;
62848;SDS011;48941;49.516;8.286;2024-01-15T11:55:33;13.43;;;6.63;;
62848;SDS011;48941;49.516;8.286;2024-01-15T11:58:02;15.63;;;7.20;;
62848;SDS011;48941;49.516;8.286;2024-01-15T12:05:37;11.48;;;5.78;;
62848;SDS011;48941;49.516;8.286;2024-01-15T12:08:05;12.80;;;6.70;;
62848;SDS011;48941;49.516;8.286;2024-01-15T12:10:37;13.02;;;6.95;;
62848;SDS011;48941;49.516;8.286;2024-01-15T12:13:09;11.55;;;6.70;;
62848;SDS011;48941;49.516;8.286;2024-01-15T12:15:41;11.73;;;6.40;;
62848;SDS011;48941;49.516;8.286;2024-01-15T12:18:11;14.43;;;7.35;;
62848;SDS011;48941;49.516;8.286;2024-01-15T12:20:40;13.88;;;7.22;;
62848;SDS011;48941;49.516;8.286;2024-01-15T12:23:10;13.13;;;7.28;;
62848;SDS011;48941;49.516;8.286;2024-01-15T12:25:40;15.98;;;7.95;;
62848;SDS011;48941;49.516;8.286;2024-01-15T12:28:08;13.32;;;6.53;;
62848;SDS011;48941;49.516;8.286;2024-01-15T12:30:36;15.23;;;7.60;;
62848;SDS011;48941;49.516;8.286;2024-01-15T12:33:06;13.93;;;7.30;;
62848;SDS011;48941;49.516;8.286;2024-01-15T12:35:36;13.18;;;7.45;;
62848;SDS011;48941;49.516;8.286;2024-01-15T12:38:04;13.32;;;7.18;;
62848;SDS011;48941;49.516;8.286;2024-01-15T12:40:33;16.27;;;7.10;;
62848;SDS011;48941;49.516;8.286;2024-01-15T12:43:03;11.40;;;6.78;;
62848;SDS011;48941;49.516;8.286;2024-01-15T12:45:32;13.45;;;7.35;;
62848;SDS011;48941;49.516;8.286;2024-01-15T12:48:02;13.75;;;7.35;;
62848;SDS011;48941;49.516;8.286;2024-01-15T12:50:32;13.82;;;7.60;;
62848;SDS011;48941;49.516;8.286;2024-01-15T12:53:01;11.35;;;6.72;;
62848;SDS011;48941;49.516;8.286;2024-01-15T12:55:29;12.57;;;6.63;;
62848;SDS011;48941;49.516;8.286;2024-01-15T12:57:56;14.63;;;7.85;;
62848;SDS011;48941;49.516;8.286;2024-01-15T13:00:24;13.70;;;6.50;;
62848;SDS011;48941;49.516;8.286;2024-01-15T13:02:53;14.05;;;7.47;;
62848;SDS011;48941;49.516;8.286;2024-01-15T13:05:22;12.55;;;7.05;;
62848;SDS011;48941;49.516;8.286;2024-01-15T13:07:52;11.88;;;6.65;;
62848;SDS011;48941;49.516;8.286;2024-01-15T13:10:20;14.52;;;6.78;;
62848;SDS011;48941;49.516;8.286;2024-01-15T13:12:51;12.60;;;7.20;;
62848;SDS011;48941;49.516;8.286;2024-01-15T13:15:19;13.70;;;7.28;;
62848;SDS011;48941;49.516;8.286;2024-01-15T13:17:47;12.15;;;6.47;;
62848;SDS011;48941;49.516;8.286;2024-01-15T13:20:15;16.13;;;8.00;;
62848;SDS011;48941;49.516;8.286;2024-01-15T13:22:43;15.23;;;7.47;;
62848;SDS011;48941;49.516;8.286;2024-01-15T13:25:13;12.68;;;7.28;;
62848;SDS011;48941;49.516;8.286;2024-01-15T13:27:42;11.27;;;6.57;;
62848;SDS011;48941;49.516;8.286;2024-01-15T13:30:10;15.02;;;7.28;;
62848;SDS011;48941;49.516;8.286;2024-01-15T13:32:40;14.80;;;7.22;;
62848;SDS011;48941;49.516;8.286;2024-01-15T13:35:08;12.88;;;6.82;;
62848;SDS011;48941;49.516;8.286;2024-01-15T13:37:39;11.23;;;6.38;;
62848;SDS011;48941;49.516;8.286;2024-01-15T13:40:08;16.15;;;7.40;;
62848;SDS011;48941;49.516;8.286;2024-01-15T13:42:45;18.55;;;9.30;;
62848;SDS011;48941;49.516;8.286;2024-01-15T13:45:13;13.60;;;7.47;;
62848;SDS011;48941;49.516;8.286;2024-01-15T13:47:42;11.50;;;6.85;;
62848;SDS011;48941;49.516;8.286;2024-01-15T13:50:10;13.63;;;7.18;;
62848;SDS011;48941;49.516;8.286;2024-01-15T13:52:39;16.70;;;7.85;;
62848;SDS011;48941;49.516;8.286;2024-01-15T13:55:07;17.10;;;6.85;;
62848;SDS011;48941;49.516;8.286;2024-01-15T13:57:36;15.63;;;7.30;;
62848;SDS011;48941;49.516;8.286;2024-01-15T14:00:06;13.77;;;7.45;;
62848;SDS011;48941;49.516;8.286;2024-01-15T14:02:38;12.85;;;6.65;;
62848;SDS011;48941;49.516;8.286;2024-01-15T14:05:07;13.70;;;6.13;;
62848;SDS011;48941;49.516;8.286;2024-01-15T14:07:35;18.15;;;8.60;;
62848;SDS011;48941;49.516;8.286;2024-01-15T14:10:03;13.50;;;7.97;;
62848;SDS011;48941;49.516;8.286;2024-01-15T14:12:34;11.52;;;7.70;;
62848;SDS011;48941;49.516;8.286;2024-01-15T14:15:02;18.17;;;7.15;;
62848;SDS011;48941;49.516;8.286;2024-01-15T14:17:33;12.18;;;6.60;;
62848;SDS011;48941;49.516;8.286;2024-01-15T14:20:01;14.52;;;6.85;;
62848;SDS011;48941;49.516;8.286;2024-01-15T14:22:31;12.05;;;6.72;;
62848;SDS011;48941;49.516;8.286;2024-01-15T14:25:00;13.57;;;6.53;;
62848;SDS011;48941;49.516;8.286;2024-01-15T14:27:27;11.10;;;5.90;;
62848;SDS011;48941;49.516;8.286;2024-01-15T14:29:55;12.23;;;6.00;;
62848;SDS011;48941;49.516;8.286;2024-01-15T14:32:23;12.25;;;6.95;;
62848;SDS011;48941;49.516;8.286;2024-01-15T14:34:53;14.30;;;6.65;;
62848;SDS011;48941;49.516;8.286;2024-01-15T14:37:21;12.57;;;6.43;;
62848;SDS011;48941;49.516;8.286;2024-01-15T14:39:49;12.55;;;6.30;;
62848;SDS011;48941;49.516;8.286;2024-01-15T14:42:17;11.93;;;6.32;;
62848;SDS011;48941;49.516;8.286;2024-01-15T14:44:45;10.48;;;6.18;;
62848;SDS011;48941;49.516;8.286;2024-01-15T14:47:13;15.00;;;7.95;;
62848;SDS011;48941;49.516;8.286;2024-01-15T14:49:41;11.00;;;5.82;;
62848;SDS011;48941;49.516;8.286;2024-01-15T14:52:10;11.70;;;5.35;;
62848;SDS011;48941;49.516;8.286;2024-01-15T14:54:38;11.73;;;5.45;;